Time;durP1;ratioP1;P1;durP2;ratioP2;P2;SDS_P1;SDS_P2;PMS_P1;PMS_P2;Temp;Humidity;BMP_temperature;BMP_pressure;BME280_temperature;BME280_humidity;BME280_pressure;Samples;Min_cycle;Max_cycle;Signal;HPM_P1;HPM_P2
2023/09/26 00:00:24;;;;;;;23.30;12.43;;;;;;;14.45;59.87;101754.34;1707080;83;21323;-60
2023/09/26 00:03:29;;;;;;;23.30;12.40;;;;;;;14.41;59.96;101752.97;1713998;84;21200;-62
2023/09/26 00:06:36;;;;;;;19.48;11.75;;;;;;;14.38;60.03;101745.05;1713988;83;21787;-61
2023/09/26 00:09:43;;;;;;;22.62;11.22;;;;;;;14.34;60.06;101748.64;1707180;83;21225;-60
2023/09/26 00:12:51;;;;;;;21.27;11.33;;;;;;;14.31;60.17;101749.48;1713793;83;21243;-60
2023/09/26 00:15:58;;;;;;;22.22;12.28;;;;;;;14.30;60.30;101749.98;1706903;83;21219;-59
2023/09/26 00:19:04;;;;;;;20.60;12.25;;;;;;;14.28;60.35;101751.20;1713829;84;21200;-60
2023/09/26 00:22:11;;;;;;;22.00;11.78;;;;;;;14.24;60.37;101751.16;1713891;83;21555;-58
2023/09/26 00:25:18;;;;;;;20.75;12.43;;;;;;;14.20;60.39;101750.62;1706859;83;21736;-59
2023/09/26 00:28:24;;;;;;;23.38;12.10;;;;;;;14.17;60.42;101744.58;1713987;84;21215;-59
2023/09/26 00:31:30;;;;;;;22.52;12.18;;;;;;;14.14;60.54;101751.80;1706912;83;21291;-60
2023/09/26 00:34:36;;;;;;;20.82;12.13;;;;;;;14.11;60.62;101748.84;1713912;84;21243;-61
2023/09/26 00:37:42;;;;;;;25.40;13.13;;;;;;;14.10;60.66;101753.14;1713759;83;21290;-59
2023/09/26 00:40:49;;;;;;;17.77;11.22;;;;;;;14.07;60.69;101754.85;1686672;83;21351;-59
2023/09/26 00:43:57;;;;;;;24.77;12.28;;;;;;;14.07;60.79;101756.23;1706306;84;21358;-59
2023/09/26 00:47:04;;;;;;;22.95;11.53;;;;;;;14.05;60.83;101756.93;1706321;83;21390;-59
2023/09/26 00:50:14;;;;;;;21.40;11.78;;;;;;;14.04;60.91;101757.44;1691418;84;21659;-60
2023/09/26 00:53:20;;;;;;;21.97;11.83;;;;;;;14.03;60.92;101760.35;1706704;83;21354;-60
2023/09/26 00:56:26;;;;;;;22.98;12.78;;;;;;;14.00;60.94;101763.44;1706370;83;21252;-59
2023/09/26 00:59:33;;;;;;;20.48;12.07;;;;;;;13.98;60.97;101765.48;1706461;84;21371;-59
2023/09/26 01:02:39;;;;;;;21.25;12.45;;;;;;;13.96;61.07;101762.03;1706888;83;21361;-59
2023/09/26 01:05:46;;;;;;;21.12;12.18;;;;;;;13.96;61.19;101762.90;1706340;83;21469;-59
2023/09/26 01:08:52;;;;;;;22.95;11.97;;;;;;;13.96;61.23;101764.78;1706403;84;21873;-59
2023/09/26 01:11:59;;;;;;;18.65;10.72;;;;;;;13.96;61.24;101767.53;1706454;83;21888;-59
2023/09/26 01:15:06;;;;;;;18.82;11.45;;;;;;;13.97;61.34;101769.28;1706601;83;21879;-59
2023/09/26 01:18:14;;;;;;;18.48;11.50;;;;;;;13.98;61.33;101773.75;1706563;83;21366;-59
2023/09/26 01:21:20;;;;;;;21.95;10.88;;;;;;;13.97;61.38;101775.63;1692336;83;21378;-59
2023/09/26 01:24:25;;;;;;;20.10;10.78;;;;;;;13.98;61.37;101780.62;1706399;84;21382;-59
2023/09/26 01:27:30;;;;;;;15.63;10.88;;;;;;;13.98;61.40;101777.88;1706456;83;21358;-59
2023/09/26 01:30:38;;;;;;;19.27;10.70;;;;;;;13.98;61.42;101784.76;1706382;83;21371;-61
2023/09/26 01:33:45;;;;;;;15.38;11.00;;;;;;;13.99;61.46;101771.33;1706310;84;21386;-60
2023/09/26 01:36:52;;;;;;;19.62;10.85;;;;;;;13.98;61.48;101769.62;1706575;83;21894;-60
2023/09/26 01:39:58;;;;;;;17.82;11.00;;;;;;;14.00;61.54;101768.95;1706406;84;21394;-60
2023/09/26 01:43:06;;;;;;;19.90;11.33;;;;;;;14.03;61.62;101769.99;1706454;84;21355;-60
2023/09/26 01:46:13;;;;;;;23.70;11.22;;;;;;;14.07;61.69;101776.37;1706386;83;21383;-60
2023/09/26 01:49:19;;;;;;;23.38;11.80;;;;;;;14.11;61.71;101775.01;1706372;84;21414;-60
2023/09/26 01:52:26;;;;;;;25.32;12.05;;;;;;;14.16;61.82;101774.54;1706445;83;21401;-60
2023/09/26 01:55:34;;;;;;;22.75;11.50;;;;;;;14.18;61.78;101776.09;1707121;83;21355;-60
2023/09/26 01:58:41;;;;;;;23.95;11.12;;;;;;;14.19;61.74;101779.17;1706521;83;21471;-60
2023/09/26 02:01:48;;;;;;;20.57;10.35;;;;;;;14.20;61.75;101782.80;1706598;83;21402;-60
2023/09/26 02:04:53;;;;;;;20.90;11.10;;;;;;;14.22;61.79;101787.64;1706702;83;21415;-62
2023/09/26 02:07:59;;;;;;;24.43;10.72;;;;;;;14.25;61.86;101787.34;1706403;83;21935;-60
2023/09/26 02:11:06;;;;;;;20.35;10.40;;;;;;;14.27;61.92;101789.42;1706397;83;21398;-61
2023/09/26 02:14:12;;;;;;;16.97;10.72;;;;;;;14.29;61.89;101788.72;1706418;84;21375;-59
2023/09/26 02:17:18;;;;;;;18.35;11.25;;;;;;;14.27;61.83;101785.30;1706365;83;21390;-59
2023/09/26 02:20:25;;;;;;;20.52;11.70;;;;;;;14.24;61.78;101791.98;1706595;83;21859;-59
2023/09/26 02:23:30;;;;;;;23.42;11.05;;;;;;;14.20;61.76;101797.95;1706372;84;21343;-63
2023/09/26 02:26:36;;;;;;;19.12;11.25;;;;;;;14.17;61.75;101795.53;1706325;83;21378;-60
2023/09/26 02:29:44;;;;;;;18.85;11.28;;;;;;;14.14;61.78;101794.48;1706395;84;21363;-60
2023/09/26 02:32:49;;;;;;;17.73;11.57;;;;;;;14.12;61.77;101793.78;1706488;83;21374;-60
2023/09/26 02:35:56;;;;;;;18.73;10.58;;;;;;;14.10;61.90;101797.20;1706372;83;21897;-59
2023/09/26 02:39:02;;;;;;;17.62;10.82;;;;;;;14.12;61.96;101797.91;1706383;84;21847;-60
2023/09/26 02:42:09;;;;;;;23.73;10.75;;;;;;;14.11;62.00;101797.04;1705118;83;21870;-59
2023/09/26 02:45:16;;;;;;;15.90;10.93;;;;;;;14.14;62.09;101807.75;1712234;82;21373;-57
2023/09/26 02:48:22;;;;;;;20.30;11.12;;;;;;;14.17;62.15;101815.69;1722940;82;21352;-58
2023/09/26 02:51:29;;;;;;;24.60;10.10;;;;;;;14.18;62.11;101809.14;1730211;82;21380;-58
2023/09/26 02:54:35;;;;;;;19.70;10.80;;;;;;;14.16;62.06;101812.56;1730212;83;21415;-58
2023/09/26 02:57:41;;;;;;;22.10;11.40;;;;;;;14.14;62.07;101811.89;1730410;82;21904;-58
2023/09/26 03:00:43;;;;;;;16.93;10.68;;;;;;;14.13;62.08;101811.52;1730208;82;21475;-59
2023/09/26 03:03:39;;;;;;;18.55;10.23;;;;;;;14.11;62.10;101810.81;1730958;82;21343;-58
2023/09/26 03:06:46;;;;;;;22.17;11.60;;;;;;;14.10;62.15;101819.23;1730515;82;21395;-58
2023/09/26 03:09:52;;;;;;;16.32;10.35;;;;;;;14.10;62.17;101810.98;1730021;83;21363;-58
2023/09/26 03:12:59;;;;;;;22.70;11.57;;;;;;;14.10;62.14;101814.60;1730085;83;21765;-58
2023/09/26 03:16:08;;;;;;;16.77;10.25;;;;;;;14.11;62.16;101818.23;1730052;82;21884;-57
2023/09/26 03:19:22;;;;;;;15.08;10.70;;;;;;;14.12;62.19;101819.95;1730503;82;21709;-59
2023/09/26 03:22:25;;;;;;;18.75;10.45;;;;;;;14.12;62.20;101825.45;1730822;82;21568;-59
2023/09/26 03:25:32;;;;;;;22.65;11.75;;;;;;;14.14;62.24;101827.54;1730632;82;21355;-57
2023/09/26 03:28:39;;;;;;;25.37;12.00;;;;;;;14.17;62.30;101829.97;1730649;83;21383;-58
2023/09/26 03:31:48;;;;;;;30.72;12.43;;;;;;;14.18;62.30;101833.93;1730625;82;21209;-59
2023/09/26 03:34:55;;;;;;;23.40;11.95;;;;;;;14.21;62.31;101829.97;1730712;83;21332;-58
2023/09/26 03:38:02;;;;;;;21.15;11.03;;;;;;;14.22;62.33;101836.69;1730693;83;21824;-57
2023/09/26 03:41:08;;;;;;;18.82;9.90;;;;;;;14.22;62.36;101839.45;1730515;82;21535;-59
2023/09/26 03:44:15;;;;;;;18.67;10.82;;;;;;;14.23;62.35;101838.44;1730313;81;21374;-59
2023/09/26 03:47:22;;;;;;;18.20;10.93;;;;;;;14.22;62.38;101841.36;1730804;82;21350;-57
2023/09/26 03:50:28;;;;;;;21.02;10.53;;;;;;;14.19;62.35;101837.56;1730961;82;21355;-57
2023/09/26 03:56:03;;;;;;;18.05;10.60;;;;;;;14.20;62.39;101837.89;1854214;76;28280;-56
2023/09/26 03:59:12;;;;;;;20.65;10.43;;;;;;;14.15;62.41;101843.02;1762476;78;21283;-57
2023/09/26 04:02:19;;;;;;;23.00;11.68;;;;;;;14.14;62.46;101850.45;1792787;79;21751;-58
2023/09/26 04:06:16;;;;;;;22.62;12.07;;;;;;;14.21;62.49;101846.50;1863711;76;28143;-59
2023/09/26 04:09:22;;;;;;;30.02;12.82;;;;;;;14.16;62.51;101847.53;1809407;79;21366;-58
2023/09/26 04:12:28;;;;;;;23.25;11.08;;;;;;;14.19;62.57;101852.70;1808837;78;21350;-58
2023/09/26 04:51:58;;;;;;;25.68;12.58;;;;;;;14.30;63.30;101876.72;1837966;76;27984;-57
2023/09/26 04:55:03;;;;;;;20.10;11.33;;;;;;;14.29;63.37;101879.63;1753396;78;21388;-60
2023/09/26 04:58:10;;;;;;;29.25;11.95;;;;;;;14.35;63.42;101881.23;1764057;77;21338;-59
2023/09/26 05:01:26;;;;;;;21.50;11.95;;;;;;;14.41;63.41;101874.21;1792536;77;21906;-60
2023/09/26 05:04:31;;;;;;;29.48;11.75;;;;;;;14.48;63.39;101875.26;1793741;79;21252;-62
2023/09/26 05:07:37;;;;;;;20.77;11.68;;;;;;;14.55;63.38;101873.59;1788988;79;21757;-55
2023/09/26 05:10:48;;;;;;;18.85;11.97;;;;;;;14.61;63.37;101875.17;1779302;78;21172;-54
2023/09/26 05:13:53;;;;;;;20.25;11.85;;;;;;;14.70;63.38;101878.30;1803660;79;21227;-54
2023/09/26 05:16:59;;;;;;;30.70;12.45;;;;;;;14.80;63.40;101873.53;1803915;77;21208;-54
2023/09/26 05:20:08;;;;;;;18.32;11.97;;;;;;;14.89;63.44;101884.92;1807205;78;21290;-54
2023/09/26 05:23:13;;;;;;;26.35;12.55;;;;;;;15.01;63.42;101882.73;1799389;79;21181;-55
2023/09/26 05:26:19;;;;;;;24.75;15.18;;;;;;;15.08;63.38;101882.38;1803205;78;21220;-55
2023/09/26 05:29:24;;;;;;;23.75;12.00;;;;;;;15.16;63.38;101882.41;1806807;77;21403;-55
2023/09/26 05:32:30;;;;;;;20.30;11.48;;;;;;;15.25;63.36;101886.93;1773083;81;21184;-54
2023/09/26 05:35:38;;;;;;;20.70;11.65;;;;;;;15.33;63.37;101889.70;1776106;79;21251;-54
2023/09/26 05:38:46;;;;;;;30.27;12.43;;;;;;;15.40;63.40;101893.53;1786340;78;21197;-53
2023/09/26 05:41:53;;;;;;;25.00;11.80;;;;;;;15.50;63.43;101896.12;1794840;79;21744;-55
2023/09/26 05:44:58;;;;;;;26.25;11.38;;;;;;;15.59;63.45;101895.09;1803016;79;21807;-55
2023/09/26 05:48:05;;;;;;;28.12;12.05;;;;;;;15.68;63.44;101892.16;1783776;79;21212;-55
2023/09/26 05:51:10;;;;;;;28.70;11.48;;;;;;;15.78;63.44;101891.98;1805399;79;21304;-55
2023/09/26 05:54:14;;;;;;;20.00;11.93;;;;;;;15.87;63.46;101891.81;1791876;79;21189;-54
2023/09/26 05:57:24;;;;;;;32.55;12.18;;;;;;;15.95;63.43;101886.29;1803931;78;21207;-55
2023/09/26 06:00:57;;;;;;;24.70;12.03;;;;;;;16.05;63.44;101885.59;1802069;79;21187;-54
2023/09/26 06:04:04;;;;;;;17.87;10.80;;;;;;;16.14;63.42;101890.06;1805823;79;21358;-55
2023/09/26 06:07:10;;;;;;;18.87;11.57;;;;;;;16.26;63.44;101888.67;1805113;79;21593;-54
2023/09/26 06:10:17;;;;;;;19.62;11.35;;;;;;;16.36;63.46;101882.41;1804887;79;22090;-56
2023/09/26 06:13:24;;;;;;;20.17;11.33;;;;;;;16.50;63.50;101886.40;1791575;79;21350;-54
2023/09/26 06:16:31;;;;;;;19.05;10.32;;;;;;;16.62;63.47;101888.27;1799562;79;21300;-54
2023/09/26 06:19:44;;;;;;;21.57;10.78;;;;;;;16.72;63.44;101887.00;1735034;77;21543;-54
2023/09/26 06:22:47;;;;;;;22.00;10.53;;;;;;;16.83;63.39;101888.00;1759377;80;21826;-53
2023/09/26 06:26:07;;;;;;;18.90;10.23;;;;;;;16.94;63.33;101890.36;1785821;79;21366;-52
2023/09/26 06:29:16;;;;;;;24.23;10.70;;;;;;;17.04;63.31;101887.37;1759904;79;21777;-52
2023/09/26 06:32:21;;;;;;;23.50;11.35;;;;;;;17.15;63.25;101893.37;1798972;78;21279;-53
2023/09/26 06:35:28;;;;;;;23.02;10.05;;;;;;;17.27;63.22;101886.88;1768572;76;21561;-53
2023/09/26 06:39:01;;;;;;;22.87;10.50;;;;;;;17.37;63.18;101890.28;1785660;79;21585;-53
2023/09/26 06:42:08;;;;;;;20.95;10.13;;;;;;;17.47;63.12;101887.63;1797922;79;21362;-54
2023/09/26 06:45:16;;;;;;;14.53;9.13;;;;;;;17.61;63.06;101892.91;1790944;79;21887;-54
2023/09/26 06:48:22;;;;;;;15.32;8.50;;;;;;;17.70;63.01;101892.66;1795044;79;21347;-54
2023/09/26 06:51:33;;;;;;;17.70;9.05;;;;;;;17.83;62.96;101883.73;1789189;79;21243;-53
2023/09/26 06:54:39;;;;;;;17.70;9.33;;;;;;;17.96;62.94;101895.05;1804033;79;21375;-53
2023/09/26 06:57:46;;;;;;;14.80;9.13;;;;;;;18.06;62.88;101885.92;1746951;81;21224;-53
2023/09/26 07:00:55;;;;;;;22.87;8.88;;;;;;;18.19;62.87;101884.76;1732797;81;21916;-55
2023/09/26 07:04:02;;;;;;;18.80;7.87;;;;;;;18.32;62.82;101883.59;1729739;81;21346;-55
2023/09/26 07:07:10;;;;;;;19.23;8.85;;;;;;;18.44;62.72;101875.16;1734924;82;21419;-54
2023/09/26 07:10:17;;;;;;;22.17;8.93;;;;;;;18.59;62.67;101882.97;1800733;78;21209;-52
2023/09/26 07:13:24;;;;;;;24.23;8.20;;;;;;;18.72;62.58;101887.84;1753341;81;21582;-54
2023/09/26 07:16:33;;;;;;;13.80;7.58;;;;;;;18.84;62.49;101880.22;1804568;79;21933;-54
2023/09/26 07:20:07;;;;;;;15.53;6.72;;;;;;;18.98;62.42;101877.95;1782578;79;21192;-54
2023/09/26 07:23:14;;;;;;;16.10;6.70;;;;;;;19.16;62.33;101877.52;1766685;81;21228;-53
2023/09/26 07:26:22;;;;;;;14.25;6.62;;;;;;;19.32;62.17;101867.61;1805412;78;21374;-52
2023/09/26 07:29:28;;;;;;;18.05;7.28;;;;;;;19.46;62.01;101870.85;1795077;79;21354;-54
2023/09/26 07:32:34;;;;;;;13.72;6.90;;;;;;;19.62;61.87;101873.90;1797477;78;21224;-53
2023/09/26 07:35:41;;;;;;;11.65;5.80;;;;;;;19.75;61.71;101874.03;1803385;79;21255;-54
2023/09/26 07:38:40;;;;;;;14.98;6.03;;;;;;;19.91;61.52;101875.15;1799895;78;21185;-55
2023/09/26 07:41:46;;;;;;;14.55;5.62;;;;;;;20.06;61.34;101870.37;1792256;79;21445;-55
2023/09/26 07:44:51;;;;;;;12.58;6.03;;;;;;;20.18;61.08;101871.05;1787880;78;21342;-55
2023/09/26 07:47:57;;;;;;;14.90;6.40;;;;;;;20.30;60.78;101872.70;1757816;81;21251;-53
2023/09/26 07:51:03;;;;;;;11.00;5.70;;;;;;;20.39;60.55;101863.16;1794888;79;21270;-54
2023/09/26 07:54:11;;;;;;;16.55;5.33;;;;;;;20.51;60.34;101858.73;1741895;81;22270;-54
2023/09/26 07:57:17;;;;;;;10.80;5.50;;;;;;;20.65;60.13;101864.70;1799696;77;21211;-59
2023/09/26 08:00:25;;;;;;;16.57;7.20;;;;;;;20.76;59.84;101864.13;1800176;78;21359;-61
2023/09/26 08:03:31;;;;;;;26.07;17.92;;;;;;;20.87;59.58;101862.14;1798741;78;21970;-60
2023/09/26 08:06:37;;;;;;;18.35;8.43;;;;;;;21.00;59.37;101858.59;1804674;79;21375;-61
2023/09/26 08:09:45;;;;;;;10.90;5.78;;;;;;;21.11;59.05;101851.02;1766040;81;22049;-62
2023/09/26 08:12:51;;;;;;;12.53;5.37;;;;;;;21.21;58.76;101858.45;1820094;78;21604;-61
2023/09/26 08:16:00;;;;;;;12.10;5.58;;;;;;;21.30;58.50;101855.80;1822442;78;21231;-61
2023/09/26 08:19:10;;;;;;;15.08;5.45;;;;;;;21.39;58.19;101850.37;1799754;79;21343;-60
2023/09/26 08:22:17;;;;;;;17.17;5.05;;;;;;;21.53;57.93;101852.95;1800291;79;21958;-59
2023/09/26 08:25:26;;;;;;;8.68;4.25;;;;;;;21.67;57.71;101856.11;1803422;78;21322;-58
2023/09/26 08:28:34;;;;;;;12.98;4.42;;;;;;;21.78;57.35;101857.44;1797508;78;21976;-60
2023/09/26 08:31:41;;;;;;;10.68;3.95;;;;;;;21.87;57.02;101851.96;1804020;79;21374;-61
2023/09/26 08:35:23;;;;;;;7.12;3.47;;;;;;;21.96;56.71;101841.77;1798512;79;21343;-60
2023/09/26 08:38:28;;;;;;;11.48;3.70;;;;;;;22.08;56.40;101848.44;1797051;77;21326;-60
2023/09/26 08:41:35;;;;;;;7.75;3.87;;;;;;;22.17;55.97;101844.34;1746846;79;21279;-60
2023/09/26 08:44:41;;;;;;;12.68;4.37;;;;;;;22.27;55.67;101848.62;1793714;79;21473;-59
2023/09/26 08:47:50;;;;;;;9.18;4.12;;;;;;;22.40;55.45;101843.89;1757793;80;21511;-60
2023/09/26 08:50:56;;;;;;;10.72;4.20;;;;;;;22.50;55.12;101843.44;1724943;80;21208;-60
2023/09/26 08:54:02;;;;;;;6.75;3.75;;;;;;;22.59;54.80;101837.44;1743211;80;21193;-59
2023/09/26 08:57:11;;;;;;;11.85;3.98;;;;;;;22.71;54.47;101838.98;1785708;76;21233;-61
2023/09/26 09:00:19;;;;;;;8.18;3.85;;;;;;;22.81;54.19;101830.48;1790905;78;21393;-61
2023/09/26 09:03:26;;;;;;;7.08;3.37;;;;;;;22.96;53.90;101838.59;1784785;77;21399;-57
2023/09/26 09:06:36;;;;;;;5.58;2.92;;;;;;;23.09;53.63;101838.51;1760895;78;21192;-57
2023/09/26 09:09:42;;;;;;;10.13;3.75;;;;;;;23.17;53.23;101834.06;1699700;81;21523;-57
2023/09/26 09:12:51;;;;;;;9.80;3.65;;;;;;;23.25;52.82;101826.33;1738849;78;21176;-57
2023/09/26 09:16:26;;;;;;;7.37;3.75;;;;;;;23.33;52.45;101827.99;1733531;79;21246;-56
2023/09/26 09:19:55;;;;;;;5.55;3.22;;;;;;;23.40;52.08;101824.62;1734930;79;21787;-58
2023/09/26 09:23:13;;;;;;;9.08;4.30;;;;;;;23.50;51.67;101827.77;1729907;79;21220;-58
2023/09/26 09:26:20;;;;;;;14.47;3.62;;;;;;;23.60;51.31;101825.34;1734216;79;21590;-57
2023/09/26 09:29:31;;;;;;;6.05;3.22;;;;;;;23.70;50.96;101824.31;1756347;80;21840;-57
2023/09/26 09:32:38;;;;;;;6.40;2.87;;;;;;;23.75;50.59;101821.69;1761720;80;21219;-59
2023/09/26 09:35:47;;;;;;;11.50;3.08;;;;;;;23.87;50.36;101817.06;1770919;81;21330;-58
2023/09/26 09:38:46;;;;;;;6.72;2.90;;;;;;;23.96;50.00;101814.84;1770390;80;21500;-57
2023/09/26 09:41:52;;;;;;;5.75;2.55;;;;;;;24.02;49.62;101812.55;1736550;82;21229;-57
2023/09/26 09:44:58;;;;;;;7.42;2.50;;;;;;;24.09;49.29;101810.00;1732804;78;21259;-59
2023/09/26 09:48:06;;;;;;;10.78;2.95;;;;;;;24.17;48.96;101808.31;1805443;79;21330;-58
2023/09/26 09:51:13;;;;;;;6.05;3.15;;;;;;;24.23;48.65;101803.19;1792483;78;21330;-58
2023/09/26 09:54:21;;;;;;;8.73;3.05;;;;;;;24.31;48.32;101802.05;1754977;77;21398;-57
2023/09/26 09:57:29;;;;;;;6.12;2.90;;;;;;;24.37;47.99;101806.72;1757477;79;21231;-57
2023/09/26 10:00:36;;;;;;;5.10;3.10;;;;;;;24.41;47.62;101810.22;1761258;79;21802;-57
2023/09/26 10:03:42;;;;;;;6.60;2.95;;;;;;;24.48;47.32;101801.19;1759811;80;21216;-57
2023/09/26 10:06:52;;;;;;;6.75;3.12;;;;;;;24.56;47.03;101800.88;1788896;79;21887;-55
2023/09/26 10:09:59;;;;;;;12.65;3.47;;;;;;;24.63;46.79;101805.00;1749418;81;21228;-56
2023/09/26 10:13:10;;;;;;;5.97;2.90;;;;;;;24.70;46.48;101801.09;1792279;78;21203;-55
2023/09/26 10:16:21;;;;;;;5.78;2.77;;;;;;;24.76;46.18;101790.34;1786630;79;21185;-55
2023/09/26 10:19:28;;;;;;;7.95;2.70;;;;;;;24.84;45.94;101787.22;1790639;79;21312;-55
2023/09/26 10:22:43;;;;;;;9.48;3.00;;;;;;;24.94;45.69;101793.67;1763698;79;21394;-57
2023/09/26 10:25:52;;;;;;;6.85;2.70;;;;;;;25.01;45.45;101788.28;1803502;78;21739;-55
2023/09/26 10:28:59;;;;;;;7.92;5.83;;;;;;;25.08;45.15;101783.98;1800442;77;21295;-54
2023/09/26 10:32:15;;;;;;;9.10;4.70;;;;;;;25.15;44.88;101783.33;1796848;78;21193;-48
2023/09/26 10:35:31;;;;;;;9.45;5.58;;;;;;;25.23;44.66;101781.59;1791384;78;21208;-59
2023/09/26 10:38:37;;;;;;;8.85;3.42;;;;;;;25.33;44.46;101785.22;1752253;80;21832;-58
2023/09/26 10:41:44;;;;;;;14.90;4.40;;;;;;;25.41;44.23;101777.38;1743017;80;21252;-59
2023/09/26 10:44:52;;;;;;;9.58;3.15;;;;;;;25.51;44.01;101781.00;1793780;79;21918;-59
2023/09/26 10:48:03;;;;;;;12.33;4.05;;;;;;;25.62;43.83;101773.16;1798696;79;21259;-58
2023/09/26 10:51:11;;;;;;;8.45;3.47;;;;;;;25.73;43.67;101771.78;1779434;79;21946;-61
2023/09/26 10:54:21;;;;;;;11.45;2.90;;;;;;;25.85;43.47;101771.77;1798711;79;21208;-61
2023/09/26 10:57:45;;;;;;;5.33;2.90;;;;;;;25.95;43.23;101774.84;1764279;80;21193;-57
2023/09/26 11:00:58;;;;;;;5.97;2.77;;;;;;;26.02;42.96;101768.61;1781699;79;21765;-61
2023/09/26 11:04:08;;;;;;;7.22;3.17;;;;;;;26.06;42.69;101765.61;1790882;78;21176;-62
2023/09/26 11:07:15;;;;;;;7.20;3.17;;;;;;;26.14;42.50;101758.22;1791192;79;21628;-63
2023/09/26 11:10:25;;;;;;;8.45;3.42;;;;;;;26.23;42.35;101765.16;1800460;78;21347;-63
2023/09/26 11:13:31;;;;;;;10.45;3.95;;;;;;;26.34;42.25;101763.76;1795736;78;21369;-63
2023/09/26 11:16:37;;;;;;;6.10;3.67;;;;;;;26.47;42.13;101751.41;1776188;78;21208;-64
2023/09/26 11:19:43;;;;;;;7.28;3.65;;;;;;;26.61;41.95;101755.64;1762173;79;21270;-61
2023/09/26 11:22:56;;;;;;;9.05;3.55;;;;;;;26.69;41.63;101753.89;1751962;77;21250;-63
2023/09/26 11:26:06;;;;;;;9.23;3.90;;;;;;;26.76;41.50;101753.75;1791942;78;21291;-62
2023/09/26 11:29:12;;;;;;;6.55;3.40;;;;;;;26.87;41.27;101758.47;1780406;78;21289;-61
2023/09/26 11:32:22;;;;;;;6.05;3.10;;;;;;;26.94;41.08;101750.19;1757385;77;21229;-60
2023/09/26 11:35:38;;;;;;;10.08;3.80;;;;;;;27.02;40.84;101751.20;1731079;78;22152;-65
2023/09/26 11:38:55;;;;;;;8.60;4.40;;;;;;;27.12;40.58;101754.22;1770694;78;21564;-60
2023/09/26 11:42:17;;;;;;;7.33;3.50;;;;;;;27.14;40.25;101747.80;1775793;78;21254;-62
2023/09/26 11:45:32;;;;;;;14.93;9.98;;;;;;;27.20;40.10;101747.33;1775001;78;21875;-63
2023/09/26 11:48:41;;;;;;;8.10;3.72;;;;;;;27.28;39.87;101754.85;1776821;79;22133;-62
2023/09/26 11:51:58;;;;;;;10.20;3.35;;;;;;;27.36;39.70;101745.14;1779458;78;21246;-58
2023/09/26 11:55:14;;;;;;;10.80;3.42;;;;;;;27.42;39.50;101748.34;1738267;78;21306;-59
2023/09/26 11:58:23;;;;;;;12.90;5.62;;;;;;;27.50;39.34;101739.48;1736602;79;21213;-57
2023/09/26 12:01:31;;;;;;;6.95;3.83;;;;;;;27.55;39.11;101733.95;1797163;78;21228;-57
2023/09/26 12:04:38;;;;;;;7.67;3.42;;;;;;;27.59;38.94;101738.81;1776269;78;21259;-57
2023/09/26 12:07:43;;;;;;;5.42;3.30;;;;;;;27.57;38.63;101731.20;1777210;76;21541;-57
2023/09/26 12:10:50;;;;;;;7.80;3.37;;;;;;;27.55;38.40;101732.00;1771634;76;21219;-57
2023/09/26 12:13:58;;;;;;;10.80;3.10;;;;;;;27.56;38.28;101733.70;1713916;81;21323;-57
2023/09/26 12:17:07;;;;;;;10.30;3.00;;;;;;;27.58;38.05;101732.89;1742101;77;21225;-57
2023/09/26 12:20:21;;;;;;;5.08;2.83;;;;;;;27.54;37.83;101730.27;1765755;77;21263;-58
2023/09/26 12:23:28;;;;;;;10.68;3.52;;;;;;;27.53;37.65;101725.77;1703376;78;21247;-58
2023/09/26 12:26:34;;;;;;;7.83;3.15;;;;;;;27.53;37.55;101725.77;1785126;78;21248;-57
2023/09/26 12:29:40;;;;;;;11.45;3.10;;;;;;;27.54;37.42;101723.23;1816979;78;21235;-57
2023/09/26 12:32:49;;;;;;;11.85;3.30;;;;;;;27.53;37.27;101735.62;1793497;78;21192;-58
2023/09/26 12:35:58;;;;;;;11.70;3.10;;;;;;;27.48;37.08;101729.89;1804021;77;21246;-57
2023/09/26 12:39:04;;;;;;;6.92;2.87;;;;;;;27.40;36.88;101723.85;1750231;79;21746;-57
2023/09/26 12:42:09;;;;;;;9.30;2.80;;;;;;;27.34;36.75;101724.84;1791606;77;21370;-58
2023/09/26 12:45:17;;;;;;;8.40;3.40;;;;;;;27.28;36.58;101718.83;1763309;80;21791;-56
2023/09/26 12:48:25;;;;;;;7.08;3.02;;;;;;;27.23;36.44;101726.59;1773642;77;21286;-59
2023/09/26 12:51:31;;;;;;;8.13;2.98;;;;;;;27.15;36.26;101719.11;1804514;78;21212;-58
2023/09/26 12:54:39;;;;;;;8.65;3.30;;;;;;;27.09;36.21;101714.50;1775556;77;21235;-57
2023/09/26 12:57:45;;;;;;;8.40;3.20;;;;;;;27.07;36.15;101716.70;1796998;78;21286;-57
2023/09/26 13:00:51;;;;;;;9.33;3.42;;;;;;;27.03;36.02;101721.14;1798986;78;21220;-57
2023/09/26 13:04:02;;;;;;;11.57;3.02;;;;;;;26.96;35.91;101710.04;1805686;78;21950;-57
2023/09/26 13:07:10;;;;;;;12.50;3.40;;;;;;;26.93;35.87;101713.36;1773292;81;21889;-57
2023/09/26 13:10:16;;;;;;;11.93;3.67;;;;;;;26.89;35.73;101716.38;1780956;79;22128;-57
2023/09/26 13:13:21;;;;;;;6.90;3.08;;;;;;;26.84;35.68;101719.09;1800892;78;21188;-58
2023/09/26 13:16:27;;;;;;;6.95;3.37;;;;;;;26.79;35.57;101710.55;1810759;78;21247;-57
2023/09/26 13:19:32;;;;;;;5.37;3.17;;;;;;;26.75;35.49;101716.34;1820232;78;21529;-58
2023/09/26 13:22:39;;;;;;;7.50;3.08;;;;;;;26.71;35.46;101714.29;1815449;77;21390;-60
2023/09/26 13:25:46;;;;;;;9.60;3.25;;;;;;;26.68;35.38;101707.23;1792020;79;21193;-58
2023/09/26 13:28:58;;;;;;;5.87;3.17;;;;;;;26.64;35.31;101706.00;1800582;79;21867;-58
2023/09/26 13:32:04;;;;;;;10.25;3.40;;;;;;;26.60;35.28;101708.98;1804229;78;21224;-58
2023/09/26 13:35:13;;;;;;;10.48;3.30;;;;;;;26.58;35.28;101708.37;1802593;79;21337;-58
2023/09/26 13:38:19;;;;;;;12.85;3.98;;;;;;;26.55;35.21;101703.80;1756148;80;21219;-58
2023/09/26 13:41:29;;;;;;;5.87;3.20;;;;;;;26.52;35.18;101705.16;1768356;80;21306;-58
2023/09/26 13:44:34;;;;;;;7.22;4.75;;;;;;;26.50;35.16;101704.55;1809114;78;21334;-57
2023/09/26 13:47:40;;;;;;;8.55;3.50;;;;;;;26.44;35.12;101700.80;1801532;79;21200;-56
2023/09/26 13:50:49;;;;;;;9.43;3.55;;;;;;;26.43;35.11;101701.05;1758138;81;21263;-57
2023/09/26 13:53:55;;;;;;;14.43;3.80;;;;;;;26.41;35.06;101696.22;1804062;78;21188;-57
2023/09/26 13:57:01;;;;;;;10.90;3.60;;;;;;;26.37;35.08;101699.20;1793563;79;21207;-56
2023/09/26 14:00:08;;;;;;;6.28;3.17;;;;;;;26.34;35.04;101689.33;1791375;78;21264;-57
2023/09/26 14:03:14;;;;;;;7.78;3.52;;;;;;;26.31;35.06;101695.45;1800907;78;21358;-62
2023/09/26 14:06:22;;;;;;;11.10;3.70;;;;;;;26.29;35.05;101700.45;1784291;78;21200;-62
2023/09/26 14:09:28;;;;;;;10.25;3.60;;;;;;;26.24;35.05;101695.28;1803059;78;21369;-64
2023/09/26 14:12:35;;;;;;;10.50;3.92;;;;;;;26.18;35.02;101693.44;1720035;80;21812;-61
2023/09/26 14:15:44;;;;;;;6.45;3.40;;;;;;;26.13;35.00;101693.35;1801551;79;21216;-66
2023/09/26 14:18:52;;;;;;;14.15;3.95;;;;;;;26.08;35.04;101696.04;1796276;79;21354;-61
2023/09/26 14:21:58;;;;;;;7.37;3.17;;;;;;;26.01;35.02;101692.49;1766623;81;21263;-62
2023/09/26 14:25:04;;;;;;;7.60;3.67;;;;;;;25.94;35.04;101694.56;1802201;79;21345;-62
2023/09/26 14:28:14;;;;;;;15.55;4.05;;;;;;;25.86;35.03;101699.97;1753602;80;21236;-65
2023/09/26 14:31:20;;;;;;;8.18;3.70;;;;;;;25.78;35.04;101700.91;1796988;78;21191;-67
2023/09/26 14:34:26;;;;;;;17.42;4.37;;;;;;;25.70;35.07;101693.71;1791620;80;21238;-64
2023/09/26 14:37:32;;;;;;;15.75;4.58;;;;;;;25.63;35.10;101700.52;1791870;79;21736;-64
2023/09/26 14:40:37;;;;;;;10.55;3.87;;;;;;;25.55;35.13;101707.87;1797955;79;21188;-64
2023/09/26 14:43:43;;;;;;;7.50;3.85;;;;;;;25.47;35.16;101708.23;1788583;79;21835;-65
2023/09/26 14:46:51;;;;;;;17.45;5.15;;;;;;;25.38;35.19;101702.67;1736880;82;21275;-64
2023/09/26 14:50:00;;;;;;;20.23;4.90;;;;;;;25.29;35.25;101696.52;1802702;79;21359;-63
2023/09/26 14:53:08;;;;;;;12.43;4.33;;;;;;;25.18;35.29;101699.31;1804009;79;21201;-63
2023/09/26 14:56:16;;;;;;;9.05;4.30;;;;;;;25.08;35.40;101697.09;1804798;79;21461;-63
2023/09/26 14:59:25;;;;;;;15.23;4.45;;;;;;;24.96;35.48;101697.05;1805208;79;21367;-63
2023/09/26 15:02:30;;;;;;;10.48;4.05;;;;;;;24.85;35.56;101705.41;1801746;78;21212;-61